createdAt,value
2018-09-15T00:02:10.182Z,12.70
2018-09-15T00:04:37.609Z,9.13
2018-09-15T00:07:05.126Z,10.80
2018-09-15T00:09:32.603Z,180.40
2018-09-15T00:12:00.038Z,550.30
2018-09-15T00:14:27.483Z,536.00
2018-09-15T00:16:54.903Z,251.03
2018-09-15T00:19:22.356Z,33.43
2018-09-15T00:21:49.799Z,11.17
2018-09-15T00:24:17.258Z,196.67
2018-09-15T00:26:44.745Z,252.83
2018-09-15T00:29:12.190Z,8.00
2018-09-15T00:31:39.627Z,44.93
2018-09-15T00:34:07.107Z,15.27
2018-09-15T00:36:34.587Z,12.47
2018-09-15T00:39:02.323Z,52.90
2018-09-15T00:41:29.690Z,233.07
2018-09-15T00:43:57.163Z,14.03
2018-09-15T00:46:24.617Z,15.83
2018-09-15T00:48:52.215Z,602.53
2018-09-15T00:51:19.701Z,53.43
2018-09-15T00:53:47.165Z,28.97
2018-09-15T00:56:14.603Z,297.77
2018-09-15T00:58:42.237Z,72.17
2018-09-15T01:01:09.772Z,225.97
2018-09-15T01:03:37.282Z,8.70
2018-09-15T01:06:04.873Z,192.73
2018-09-15T01:08:32.437Z,9.83
2018-09-15T01:10:59.905Z,9.27
2018-09-15T01:13:27.397Z,17.67
2018-09-15T01:15:54.920Z,10.20
2018-09-15T01:18:22.378Z,41.27
2018-09-15T01:20:49.802Z,9.97
2018-09-15T01:23:17.334Z,10.37
2018-09-15T01:25:44.972Z,9.17
2018-09-15T01:28:12.401Z,11.57
2018-09-15T01:30:39.841Z,8.07
2018-09-15T01:33:07.333Z,9.13
2018-09-15T01:35:34.821Z,8.63
2018-09-15T01:38:02.288Z,8.83
2018-09-15T01:40:29.933Z,11.13
2018-09-15T01:42:57.500Z,10.40
2018-09-15T01:45:24.968Z,568.80
2018-09-15T01:47:52.478Z,81.87
2018-09-15T01:50:19.893Z,16.90
2018-09-15T01:52:47.315Z,212.83
2018-09-15T01:55:14.727Z,14.87
2018-09-15T01:57:42.287Z,54.93
2018-09-15T02:00:09.861Z,52.53
2018-09-15T02:02:37.374Z,23.03
2018-09-15T02:05:05.228Z,12.23
2018-09-15T02:07:32.841Z,10.63
2018-09-15T02:10:00.342Z,10.23
2018-09-15T02:12:28.069Z,8.80
2018-09-15T02:14:55.490Z,8.53
2018-09-15T02:17:23.011Z,8.50
2018-09-15T02:19:50.441Z,7.90
2018-09-15T02:22:17.950Z,8.93
2018-09-15T02:24:45.414Z,7.93
2018-09-15T02:27:12.846Z,8.03
2018-09-15T02:29:40.282Z,7.83
2018-09-15T02:32:07.727Z,8.07
2018-09-15T02:34:35.302Z,8.40
2018-09-15T02:37:02.705Z,8.60
2018-09-15T02:39:30.246Z,8.50
2018-09-15T02:41:57.843Z,8.83
2018-09-15T02:44:25.318Z,10.67
2018-09-15T02:46:52.922Z,8.33
2018-09-15T02:49:20.440Z,8.10
2018-09-15T02:51:47.910Z,8.10
2018-09-15T02:54:15.408Z,7.70
2018-09-15T02:56:43.044Z,9.10
2018-09-15T02:59:10.457Z,8.17
2018-09-15T03:01:37.886Z,7.40
2018-09-15T03:04:05.390Z,8.23
2018-09-15T03:06:32.913Z,7.70
2018-09-15T03:09:00.398Z,8.50
2018-09-15T03:11:27.842Z,8.50
2018-09-15T03:13:55.261Z,8.03
2018-09-15T03:16:22.878Z,7.70
2018-09-15T03:18:50.377Z,7.60
2018-09-15T03:21:17.861Z,7.50
2018-09-15T03:23:45.350Z,8.00
2018-09-15T03:26:12.790Z,7.87
2018-09-15T03:28:40.494Z,7.30
2018-09-15T03:31:07.962Z,7.30
2018-09-15T03:33:35.410Z,8.77
2018-09-15T03:36:02.901Z,6.93
2018-09-15T03:38:30.355Z,9.00
2018-09-15T03:40:57.837Z,7.07
2018-09-15T03:43:25.322Z,7.93
2018-09-15T03:45:52.726Z,7.60
2018-09-15T03:48:20.149Z,7.70
2018-09-15T03:50:47.606Z,8.63
2018-09-15T03:53:15.146Z,7.50
2018-09-15T03:55:42.553Z,7.30
2018-09-15T03:58:09.974Z,7.63
2018-09-15T04:00:37.492Z,7.37
2018-09-15T04:03:04.922Z,8.20
2018-09-15T04:05:32.505Z,7.67
2018-09-15T04:07:59.921Z,7.53
2018-09-15T04:10:27.357Z,7.90
2018-09-15T04:12:54.787Z,9.60
2018-09-15T04:15:22.230Z,7.90
2018-09-15T04:17:49.753Z,8.47
2018-09-15T04:20:17.181Z,8.40
2018-09-15T04:22:44.626Z,7.77
2018-09-15T04:25:12.154Z,7.70
2018-09-15T04:27:40.046Z,6.97
2018-09-15T04:30:07.628Z,9.00
2018-09-15T04:32:35.154Z,8.03
2018-09-15T04:35:02.600Z,8.53
2018-09-15T04:37:30.036Z,9.40
2018-09-15T04:39:57.589Z,8.60
2018-09-15T04:42:25.049Z,8.00
2018-09-15T04:44:52.556Z,9.20
2018-09-15T04:47:20.003Z,7.30
2018-09-15T04:49:47.510Z,7.93
2018-09-15T04:52:14.942Z,7.93
2018-09-15T04:54:42.368Z,7.97
2018-09-15T04:57:09.910Z,7.33
2018-09-15T04:59:37.370Z,11.00
2018-09-15T05:02:04.934Z,8.17
2018-09-15T05:04:32.455Z,8.93
2018-09-15T05:06:59.877Z,8.20
2018-09-15T05:09:27.289Z,8.80
2018-09-15T05:11:54.813Z,9.27
2018-09-15T05:14:22.328Z,8.80
2018-09-15T05:16:49.831Z,8.90
2018-09-15T05:19:17.234Z,8.90
2018-09-15T05:21:44.723Z,8.67
2018-09-15T05:24:12.158Z,11.50
2018-09-15T05:26:39.625Z,7.90
2018-09-15T05:29:07.044Z,7.87
2018-09-15T05:31:34.530Z,8.00
2018-09-15T05:34:01.995Z,8.40
2018-09-15T05:36:29.418Z,8.53
2018-09-15T05:38:56.874Z,8.57
2018-09-15T05:41:24.294Z,8.60
2018-09-15T05:43:51.778Z,8.47
2018-09-15T05:46:19.266Z,8.57
2018-09-15T05:48:46.768Z,8.67
2018-09-15T05:51:14.227Z,9.13
2018-09-15T05:53:41.657Z,10.07
2018-09-15T05:56:09.357Z,7.97
2018-09-15T05:58:36.720Z,8.17
2018-09-15T06:01:04.373Z,8.37
2018-09-15T06:03:31.998Z,8.63
2018-09-15T06:05:59.464Z,8.27
2018-09-15T06:08:26.961Z,9.50
2018-09-15T06:10:54.512Z,8.13
2018-09-15T06:13:22.040Z,8.80
2018-09-15T06:15:49.653Z,7.90
2018-09-15T06:18:17.057Z,9.37
2018-09-15T06:20:44.642Z,9.20
2018-09-15T06:23:12.529Z,8.30
2018-09-15T06:25:40.041Z,8.13
2018-09-15T06:28:07.634Z,9.40
2018-09-15T06:30:35.394Z,10.17
2018-09-15T06:33:03.062Z,8.70
2018-09-15T06:35:30.710Z,8.00
2018-09-15T06:37:58.225Z,9.80
2018-09-15T06:40:25.683Z,9.57
2018-09-15T06:42:53.155Z,9.13
2018-09-15T06:45:20.674Z,8.77
2018-09-15T06:47:48.207Z,7.73
2018-09-15T06:50:15.768Z,9.07
2018-09-15T06:52:43.219Z,8.43
2018-09-15T06:55:10.693Z,8.87
2018-09-15T06:57:38.115Z,9.00
2018-09-15T07:00:05.850Z,8.40
2018-09-15T07:02:33.441Z,8.97
2018-09-15T07:05:01.034Z,11.13
2018-09-15T07:07:28.579Z,16.57
2018-09-15T07:09:56.099Z,11.43
2018-09-15T07:12:23.659Z,12.73
2018-09-15T07:14:51.105Z,12.53
2018-09-15T07:17:18.646Z,10.47
2018-09-15T07:19:46.129Z,10.13
2018-09-15T07:22:13.578Z,10.07
2018-09-15T07:24:41.113Z,14.77
2018-09-15T07:27:08.598Z,15.73
2018-09-15T07:29:36.136Z,12.00
2018-09-15T07:32:03.637Z,11.07
2018-09-15T07:34:31.131Z,18.27
2018-09-15T07:36:58.643Z,101.93
2018-09-15T07:39:26.230Z,408.57
2018-09-15T07:41:53.709Z,633.47
2018-09-15T07:44:21.245Z,420.23
2018-09-15T07:46:48.677Z,176.70
2018-09-15T07:49:16.142Z,15.90
2018-09-15T07:51:43.669Z,559.13
2018-09-15T07:54:11.109Z,1400.73
2018-09-15T07:56:38.585Z,1199.97
2018-09-15T07:59:06.005Z,125.23
2018-09-15T08:01:33.471Z,218.50
2018-09-15T08:04:01.058Z,32.47
2018-09-15T08:06:28.539Z,600.13
2018-09-15T08:08:55.947Z,806.50
2018-09-15T08:11:23.419Z,991.10
2018-09-15T08:13:50.876Z,11.07
2018-09-15T08:16:18.469Z,12.13
2018-09-15T08:18:46.003Z,13.63
2018-09-15T08:21:13.554Z,889.77
2018-09-15T08:23:41.145Z,785.97
2018-09-15T08:26:08.594Z,333.37
2018-09-15T08:28:36.037Z,10.67
2018-09-15T08:31:03.469Z,131.10
2018-09-15T08:33:30.922Z,75.97
2018-09-15T08:35:58.377Z,97.00
2018-09-15T08:38:25.885Z,11.37
2018-09-15T08:40:53.263Z,12.37
2018-09-15T08:43:20.817Z,11.63
2018-09-15T08:45:50.221Z,17.90
2018-09-15T08:48:17.697Z,27.30
2018-09-15T08:50:45.186Z,26.40
2018-09-15T08:53:12.828Z,11.77
2018-09-15T08:55:40.260Z,10.83
2018-09-15T08:58:07.821Z,11.60
2018-09-15T09:00:35.532Z,11.53
2018-09-15T09:03:03.157Z,20.77
2018-09-15T09:05:30.725Z,17.70
2018-09-15T09:07:58.267Z,18.87
2018-09-15T09:10:25.747Z,17.97
2018-09-15T09:12:53.201Z,17.30
2018-09-15T09:15:20.961Z,15.27
2018-09-15T09:17:48.818Z,13.30
2018-09-15T09:20:16.394Z,13.93
2018-09-15T09:22:43.870Z,13.43
2018-09-15T09:25:11.338Z,13.10
2018-09-15T09:27:38.938Z,14.43
2018-09-15T09:30:06.630Z,14.23
2018-09-15T09:32:34.271Z,13.30
2018-09-15T09:35:01.756Z,11.10
2018-09-15T09:37:29.449Z,10.10
2018-09-15T09:39:56.877Z,10.30
2018-09-15T09:42:24.591Z,9.27
2018-09-15T09:44:52.005Z,11.47
2018-09-15T09:47:19.517Z,10.17
2018-09-15T09:49:47.126Z,9.50
2018-09-15T09:52:14.706Z,9.43
2018-09-15T09:54:42.134Z,8.83
2018-09-15T09:57:09.590Z,11.73
2018-09-15T09:59:37.105Z,10.93
2018-09-15T10:02:10.409Z,11.13
2018-09-15T10:04:37.846Z,8.43
2018-09-15T10:07:05.440Z,7.57
2018-09-15T10:09:32.890Z,7.60
2018-09-15T10:12:00.535Z,105.83
2018-09-15T10:14:27.941Z,348.43
2018-09-15T10:16:55.553Z,11.47
2018-09-15T10:19:23.085Z,22.10
2018-09-15T10:21:50.659Z,15.50
2018-09-15T10:24:18.154Z,10.53
2018-09-15T10:26:45.668Z,14.93
2018-09-15T10:29:13.217Z,14.27
2018-09-15T10:31:40.681Z,20.77
2018-09-15T10:34:08.121Z,11.37
2018-09-15T10:36:35.558Z,13.50
2018-09-15T10:39:04.547Z,6.83
2018-09-15T10:41:32.165Z,9.40
2018-09-15T10:43:59.664Z,13.40
2018-09-15T10:46:27.134Z,6.67
2018-09-15T10:48:54.665Z,8.03
2018-09-15T10:51:22.129Z,7.20
2018-09-15T10:53:49.638Z,7.53
2018-09-15T10:56:17.150Z,76.77
2018-09-15T10:58:44.801Z,422.20
2018-09-15T11:01:12.240Z,117.47
2018-09-15T11:03:39.757Z,24.90
2018-09-15T11:06:07.240Z,8.97
2018-09-15T11:08:35.630Z,8.43
2018-09-15T11:11:03.159Z,7.20
2018-09-15T11:13:30.708Z,6.77
2018-09-15T11:15:58.286Z,8.37
2018-09-15T11:18:25.740Z,7.10
2018-09-15T11:20:53.256Z,7.63
2018-09-15T11:23:20.710Z,7.93
2018-09-15T11:25:48.229Z,154.17
2018-09-15T11:28:15.746Z,36.93
2018-09-15T11:30:43.305Z,27.03
2018-09-15T11:33:10.884Z,24.90
2018-09-15T11:35:38.406Z,13.50
2018-09-15T11:38:05.965Z,8.40
2018-09-15T11:40:33.542Z,8.53
2018-09-15T11:43:01.084Z,11.47
2018-09-15T11:45:28.639Z,59.63
2018-09-15T11:47:56.132Z,24.87
2018-09-15T11:50:23.598Z,55.17
2018-09-15T11:52:51.213Z,33.93
2018-09-15T11:55:18.778Z,10.57
2018-09-15T11:57:46.216Z,11.57
2018-09-15T12:00:16.710Z,12.53
2018-09-15T12:02:44.276Z,6.73
2018-09-15T12:05:12.720Z,14.00
2018-09-15T12:07:40.199Z,19.63
2018-09-15T12:10:07.708Z,10.27
2018-09-15T12:12:35.188Z,10.77
2018-09-15T12:15:02.759Z,8.10
2018-09-15T12:17:30.203Z,158.23
2018-09-15T12:19:57.626Z,276.43
2018-09-15T12:22:25.074Z,74.13
2018-09-15T12:24:52.718Z,363.77
2018-09-15T12:27:20.269Z,109.30
2018-09-15T12:29:47.723Z,35.47
2018-09-15T12:32:15.286Z,1999.90
2018-09-15T12:34:42.707Z,1739.77
2018-09-15T12:37:10.166Z,1682.27
2018-09-15T12:39:37.626Z,4.00
2018-09-15T12:42:05.107Z,114.43
2018-09-15T12:44:32.637Z,36.87
2018-09-15T12:47:00.260Z,12.47
2018-09-15T12:49:27.922Z,8.77
2018-09-15T12:51:55.561Z,9.97
2018-09-15T12:54:23.000Z,5.83
2018-09-15T12:56:50.497Z,4.00
2018-09-15T12:59:18.144Z,8.93
2018-09-15T13:01:45.630Z,4.60
2018-09-15T13:04:13.081Z,10.47
2018-09-15T13:06:40.554Z,32.03
2018-09-15T13:09:09.605Z,51.20
2018-09-15T13:11:37.146Z,19.97
2018-09-15T13:14:04.933Z,10.10
2018-09-15T13:16:32.388Z,10.17
2018-09-15T13:19:00.129Z,18.93
2018-09-15T13:21:27.605Z,8.80
2018-09-15T13:23:55.017Z,13.03
2018-09-15T13:26:22.601Z,9.10
2018-09-15T13:28:50.160Z,12.97
2018-09-15T13:31:17.749Z,16.43
2018-09-15T13:33:45.201Z,8.20
2018-09-15T13:36:12.733Z,7.27
2018-09-15T13:38:40.187Z,10.83
2018-09-15T13:41:07.606Z,13.77
2018-09-15T13:43:35.181Z,14.47
2018-09-15T13:46:02.725Z,8.53
2018-09-15T13:48:30.347Z,9.97
2018-09-15T13:50:57.779Z,7.10
2018-09-15T13:53:25.240Z,11.63
2018-09-15T13:55:52.785Z,6.90
2018-09-15T13:58:20.354Z,8.17
2018-09-15T14:00:47.786Z,6.17
2018-09-15T14:03:15.389Z,12.90
2018-09-15T14:05:43.114Z,6.93
2018-09-15T14:08:10.630Z,7.17
2018-09-15T14:10:38.107Z,10.37
2018-09-15T14:13:05.588Z,10.63
2018-09-15T14:15:33.146Z,11.20
2018-09-15T14:18:00.678Z,10.77
2018-09-15T14:20:28.239Z,13.10
2018-09-15T14:22:55.861Z,3.67
2018-09-15T14:25:23.373Z,3.70
2018-09-15T14:27:50.835Z,7.57
2018-09-15T14:30:18.342Z,2.50
2018-09-15T14:32:45.797Z,8.30
2018-09-15T14:35:13.289Z,4.83
2018-09-15T14:37:40.809Z,3.70
2018-09-15T14:40:08.246Z,15.43
2018-09-15T14:42:35.783Z,4.67
2018-09-15T14:45:03.445Z,16.00
2018-09-15T14:47:31.026Z,10.93
2018-09-15T14:49:58.527Z,12.27
2018-09-15T14:52:25.982Z,10.00
2018-09-15T14:54:53.522Z,7.57
2018-09-15T14:57:21.137Z,10.00
2018-09-15T14:59:48.635Z,11.20
2018-09-15T15:02:16.131Z,8.90
2018-09-15T15:04:43.578Z,8.77
2018-09-15T15:07:11.155Z,5.87
2018-09-15T15:09:38.639Z,5.33
2018-09-15T15:12:06.205Z,8.00
2018-09-15T15:14:33.668Z,6.77
2018-09-15T15:17:01.295Z,4.43
2018-09-15T15:19:28.792Z,6.87
2018-09-15T15:21:56.211Z,10.03
2018-09-15T15:24:23.790Z,3.37
2018-09-15T15:26:51.265Z,5.03
2018-09-15T15:29:18.708Z,5.27
2018-09-15T15:31:46.239Z,6.37
2018-09-15T15:34:13.730Z,5.73
2018-09-15T15:36:41.238Z,4.93
2018-09-15T15:39:08.836Z,8.60
2018-09-15T15:41:36.398Z,3.50
2018-09-15T15:44:04.194Z,5.47
2018-09-15T15:46:31.683Z,3.73
2018-09-15T15:48:59.217Z,4.93
2018-09-15T15:51:26.838Z,3.60
2018-09-15T15:53:54.291Z,3.33
2018-09-15T15:56:21.702Z,6.43
2018-09-15T15:58:49.334Z,3.50
2018-09-15T16:01:16.760Z,8.23
2018-09-15T16:03:44.251Z,12.50
2018-09-15T16:06:11.844Z,7.37
2018-09-15T16:08:39.365Z,8.70
2018-09-15T16:11:06.912Z,5.90
2018-09-15T16:13:34.413Z,4.20
2018-09-15T16:16:01.935Z,7.23
2018-09-15T16:18:29.434Z,10.20
2018-09-15T16:20:56.881Z,6.73
2018-09-15T16:23:24.300Z,5.47
2018-09-15T16:25:52.110Z,3.33
2018-09-15T16:28:19.605Z,4.57
2018-09-15T16:30:47.209Z,4.70
2018-09-15T16:33:14.674Z,6.67
2018-09-15T16:35:42.103Z,5.17
2018-09-15T16:38:09.623Z,6.27
2018-09-15T16:40:37.176Z,8.17
2018-09-15T16:43:05.062Z,4.23
2018-09-15T16:45:32.575Z,4.07
2018-09-15T16:48:00.174Z,3.80
2018-09-15T16:50:27.760Z,5.43
2018-09-15T16:52:55.203Z,5.60
2018-09-15T16:55:22.662Z,5.37
2018-09-15T16:57:50.108Z,4.90
2018-09-15T17:00:17.534Z,3.57
2018-09-15T17:02:44.957Z,3.93
2018-09-15T17:05:12.437Z,3.93
2018-09-15T17:07:39.895Z,6.30
2018-09-15T17:10:07.423Z,6.80
2018-09-15T17:12:34.993Z,4.40
2018-09-15T17:15:02.588Z,9.80
2018-09-15T17:17:30.117Z,48.73
2018-09-15T17:19:57.657Z,29.33
2018-09-15T17:22:25.258Z,23.57
2018-09-15T17:24:53.683Z,11.17
2018-09-15T17:27:21.256Z,8.37
2018-09-15T17:29:48.700Z,7.67
2018-09-15T17:32:16.115Z,5.67
2018-09-15T17:34:43.588Z,8.40
2018-09-15T17:37:11.295Z,7.00
2018-09-15T17:39:38.840Z,7.70
2018-09-15T17:42:06.603Z,6.40
2018-09-15T17:44:34.054Z,6.00
2018-09-15T17:47:01.572Z,6.97
2018-09-15T17:49:29.049Z,6.73
2018-09-15T17:51:56.549Z,5.80
2018-09-15T17:54:23.990Z,5.07
2018-09-15T17:56:51.458Z,7.00
2018-09-15T17:59:19.038Z,5.03
2018-09-15T18:01:46.489Z,7.97
2018-09-15T18:04:14.003Z,282.70
2018-09-15T18:06:41.481Z,1771.03
2018-09-15T18:09:09.041Z,1755.20
2018-09-15T18:11:36.542Z,1741.27
2018-09-15T18:14:04.030Z,1794.13
2018-09-15T18:16:31.497Z,1684.97
2018-09-15T18:18:59.087Z,1770.70
2018-09-15T18:21:26.600Z,1326.80
2018-09-15T18:23:54.120Z,816.00
2018-09-15T18:26:21.674Z,658.33
2018-09-15T18:28:49.159Z,45.13
2018-09-15T18:31:16.653Z,12.27
2018-09-15T18:33:44.360Z,7.27
2018-09-15T18:36:11.829Z,7.53
2018-09-15T18:38:39.353Z,7.60
2018-09-15T18:41:06.838Z,7.20
2018-09-15T18:43:34.338Z,7.30
2018-09-15T18:46:01.903Z,5.37
2018-09-15T18:48:29.446Z,5.23
2018-09-15T18:50:56.928Z,4.93
2018-09-15T18:53:24.438Z,5.17
2018-09-15T18:55:52.037Z,9.03
2018-09-15T18:58:19.693Z,52.40
2018-09-15T19:00:47.243Z,166.60
2018-09-15T19:03:15.183Z,70.27
2018-09-15T19:05:43.846Z,28.73
2018-09-15T19:08:11.446Z,497.80
2018-09-15T19:10:38.914Z,10.17
2018-09-15T19:13:06.413Z,6.13
2018-09-15T19:15:33.901Z,7.03
2018-09-15T19:18:01.355Z,8.20
2018-09-15T19:20:28.914Z,5.63
2018-09-15T19:22:56.354Z,6.03
2018-09-15T19:25:24.035Z,542.73
2018-09-15T19:27:51.517Z,1295.20
2018-09-15T19:30:19.038Z,426.77
2018-09-15T19:32:46.504Z,809.10
2018-09-15T19:35:13.937Z,74.83
2018-09-15T19:37:41.451Z,131.97
2018-09-15T19:40:08.921Z,12.50
2018-09-15T19:42:36.385Z,5.40
2018-09-15T19:45:04.014Z,7.73
2018-09-15T19:47:31.546Z,6.23
2018-09-15T19:49:59.169Z,26.20
2018-09-15T19:52:26.703Z,27.63
2018-09-15T19:54:54.143Z,203.67
2018-09-15T19:57:21.622Z,261.53
2018-09-15T19:59:49.225Z,824.97
2018-09-15T20:02:16.721Z,138.73
2018-09-15T20:04:44.182Z,30.50
2018-09-15T20:07:11.671Z,72.87
2018-09-15T20:09:39.127Z,41.90
2018-09-15T20:12:06.610Z,72.50
2018-09-15T20:14:34.077Z,101.73
2018-09-15T20:17:00.501Z,14.73
2018-09-15T20:19:26.870Z,86.97
2018-09-15T20:21:53.282Z,686.80
2018-09-15T20:24:20.748Z,61.90
2018-09-15T20:26:48.249Z,17.33
2018-09-15T20:29:15.705Z,9.53
2018-09-15T20:31:43.189Z,7.83
2018-09-15T20:34:10.645Z,8.43
2018-09-15T20:36:38.148Z,6.37
2018-09-15T20:39:08.570Z,21.67
2018-09-15T20:41:36.054Z,4.97
2018-09-15T20:44:03.573Z,8.50
2018-09-15T20:46:31.204Z,7.20
2018-09-15T20:49:00.397Z,7.50
2018-09-15T20:51:27.909Z,244.47
2018-09-15T20:53:55.527Z,5.93
2018-09-15T20:56:23.060Z,4.50
2018-09-15T20:58:50.586Z,5.90
2018-09-15T21:01:18.079Z,4.80
2018-09-15T21:03:45.522Z,7.67
2018-09-15T21:06:13.886Z,5.17
2018-09-15T21:08:41.370Z,8.63
2018-09-15T21:11:08.867Z,7.90
2018-09-15T21:13:36.592Z,5.50
2018-09-15T21:16:04.143Z,4.47
2018-09-15T21:18:31.582Z,4.93
2018-09-15T21:20:59.081Z,4.73
2018-09-15T21:23:26.505Z,4.30
2018-09-15T21:25:54.010Z,4.83
2018-09-15T21:28:21.447Z,6.87
2018-09-15T21:30:48.952Z,7.90
2018-09-15T21:33:16.460Z,6.00
2018-09-15T21:35:44.058Z,7.20
2018-09-15T21:38:11.511Z,7.53
2018-09-15T21:40:39.014Z,5.17
2018-09-15T21:43:06.539Z,6.70
2018-09-15T21:45:34.036Z,5.53
2018-09-15T21:48:01.519Z,6.57
2018-09-15T21:53:13.513Z,4.90
2018-09-15T21:55:41.018Z,5.97
2018-09-15T21:58:08.521Z,6.40
2018-09-15T22:00:36.047Z,6.00
2018-09-15T22:03:03.531Z,6.47
2018-09-15T22:05:47.321Z,5.30
2018-09-15T22:08:14.768Z,5.57
2018-09-15T22:10:42.244Z,4.83
2018-09-15T22:13:09.741Z,5.53
2018-09-15T22:15:37.371Z,6.00
2018-09-15T22:18:05.065Z,5.30
2018-09-15T22:20:32.618Z,51.53
2018-09-15T22:23:00.131Z,5.23
2018-09-15T22:25:27.606Z,6.40
2018-09-15T22:27:55.045Z,7.60
2018-09-15T22:30:22.541Z,5.87
2018-09-15T22:32:50.003Z,5.77
2018-09-15T22:35:17.465Z,6.67
2018-09-15T22:37:44.941Z,7.47
2018-09-15T22:40:12.435Z,21.90
2018-09-15T22:42:39.910Z,22.43
2018-09-15T22:45:07.443Z,6.87
2018-09-15T22:47:34.877Z,5.03
2018-09-15T22:50:02.682Z,5.67
2018-09-15T22:52:30.173Z,6.00
2018-09-15T22:54:57.677Z,6.97
2018-09-15T22:57:25.159Z,8.40
2018-09-15T22:59:52.589Z,7.67
2018-09-15T23:02:20.082Z,6.30
2018-09-15T23:04:47.639Z,4.90
2018-09-15T23:07:15.117Z,5.67
2018-09-15T23:09:42.713Z,4.87
2018-09-15T23:12:10.394Z,6.03
2018-09-15T23:14:37.917Z,6.07
2018-09-15T23:17:05.455Z,5.53
2018-09-15T23:19:32.890Z,9.40
2018-09-15T23:22:00.386Z,6.03
2018-09-15T23:24:27.806Z,5.00
2018-09-15T23:26:55.385Z,5.30
2018-09-15T23:29:22.857Z,5.87
2018-09-15T23:31:50.345Z,5.27
2018-09-15T23:34:17.870Z,5.30
2018-09-15T23:36:52.281Z,5.00
2018-09-15T23:39:19.722Z,4.70
2018-09-15T23:41:47.241Z,6.30
2018-09-15T23:44:14.725Z,4.37
2018-09-15T23:46:42.211Z,5.27
2018-09-15T23:49:09.657Z,5.20
2018-09-15T23:51:37.137Z,4.13
2018-09-15T23:54:04.705Z,4.23
2018-09-15T23:56:32.138Z,4.90
2018-09-15T23:58:59.667Z,7.60
